createdAt,value
2018-01-25T00:01:35.080Z,54.08
2018-01-25T00:04:01.431Z,54.31
2018-01-25T00:06:27.705Z,53.76
2018-01-25T00:08:53.944Z,53.67
2018-01-25T00:11:20.160Z,53.67
2018-01-25T00:13:46.388Z,54.95
2018-01-25T00:16:12.685Z,56.36
2018-01-25T00:18:38.913Z,54.84
2018-01-25T00:21:05.121Z,55.09
2018-01-25T00:23:31.392Z,55.12
2018-01-25T00:25:57.648Z,54.17
2018-01-25T00:28:23.824Z,53.41
2018-01-25T00:30:50.105Z,54.09
2018-01-25T00:33:16.364Z,53.99
2018-01-25T00:35:42.561Z,53.94
2018-01-25T00:38:08.808Z,54.00
2018-01-25T00:40:35.044Z,54.79
2018-01-25T00:43:01.307Z,54.05
2018-01-25T00:45:27.572Z,53.42
2018-01-25T00:47:53.796Z,53.38
2018-01-25T00:50:20.007Z,53.68
2018-01-25T00:52:46.220Z,54.29
2018-01-25T00:55:12.464Z,53.74
2018-01-25T00:57:38.773Z,54.56
2018-01-25T01:00:05.037Z,54.31
2018-01-25T01:02:31.228Z,53.97
2018-01-25T01:04:57.460Z,54.45
2018-01-25T01:07:23.708Z,54.17
2018-01-25T01:09:49.981Z,55.08
2018-01-25T01:12:16.212Z,55.10
2018-01-25T01:14:42.492Z,54.93
2018-01-25T01:17:08.793Z,55.07
2018-01-25T01:19:34.985Z,55.04
2018-01-25T01:22:01.204Z,55.76
2018-01-25T01:24:27.449Z,55.25
2018-01-25T01:26:53.668Z,55.97
2018-01-25T01:29:19.914Z,55.01
2018-01-25T01:31:46.193Z,54.21
2018-01-25T01:34:12.409Z,54.34
2018-01-25T01:36:38.596Z,55.08
2018-01-25T01:39:04.845Z,55.69
2018-01-25T01:41:31.072Z,55.51
2018-01-25T01:43:57.256Z,55.54
2018-01-25T01:46:23.545Z,55.56
2018-01-25T01:48:49.777Z,55.39
2018-01-25T01:51:15.961Z,56.05
2018-01-25T01:53:42.212Z,56.00
2018-01-25T01:56:08.408Z,56.39
2018-01-25T01:58:34.620Z,56.11
2018-01-25T02:01:00.920Z,55.65
2018-01-25T02:03:27.244Z,54.93
2018-01-25T02:05:53.494Z,55.21
2018-01-25T02:08:19.816Z,54.90
2018-01-25T02:10:46.035Z,55.38
2018-01-25T02:13:12.241Z,55.82
2018-01-25T02:15:38.477Z,55.77
2018-01-25T02:18:04.721Z,55.00
2018-01-25T02:20:30.972Z,55.06
2018-01-25T02:22:57.301Z,55.72
2018-01-25T02:25:23.501Z,55.70
2018-01-25T02:27:49.758Z,55.80
2018-01-25T02:30:16.085Z,56.84
2018-01-25T02:32:42.289Z,56.41
2018-01-25T02:35:08.521Z,56.17
2018-01-25T02:37:34.775Z,56.70
2018-01-25T02:40:01.009Z,56.71
2018-01-25T02:42:27.231Z,55.86
2018-01-25T02:44:53.401Z,55.43
2018-01-25T02:47:19.569Z,56.19
2018-01-25T02:49:45.791Z,56.54
2018-01-25T02:52:12.057Z,56.20
2018-01-25T02:54:38.380Z,57.38
2018-01-25T02:57:04.609Z,56.19
2018-01-25T02:59:30.776Z,56.07
2018-01-25T03:01:56.998Z,55.62
2018-01-25T03:04:23.287Z,56.52
2018-01-25T03:06:49.457Z,55.84
2018-01-25T03:09:15.653Z,57.16
2018-01-25T03:11:41.976Z,57.50
2018-01-25T03:14:08.176Z,57.85
2018-01-25T03:16:34.361Z,57.72
2018-01-25T03:19:00.554Z,56.85
2018-01-25T03:21:26.768Z,56.61
2018-01-25T03:23:52.992Z,57.76
2018-01-25T03:26:19.218Z,57.06
2018-01-25T03:28:45.400Z,56.80
2018-01-25T03:31:11.625Z,57.03
2018-01-25T03:33:37.857Z,58.24
2018-01-25T03:36:04.100Z,57.25
2018-01-25T03:38:30.293Z,56.24
2018-01-25T03:40:56.496Z,55.98
2018-01-25T03:43:22.717Z,56.00
2018-01-25T03:45:48.940Z,56.14
2018-01-25T03:48:15.168Z,55.68
2018-01-25T03:50:41.386Z,56.13
2018-01-25T03:53:07.556Z,55.81
2018-01-25T03:55:33.713Z,55.60
2018-01-25T03:57:59.982Z,55.42
2018-01-25T04:00:26.189Z,55.65
2018-01-25T04:02:52.397Z,56.35
2018-01-25T04:05:18.608Z,56.08
2018-01-25T04:07:44.957Z,56.17
2018-01-25T04:10:11.136Z,56.32
2018-01-25T04:12:37.309Z,56.27
2018-01-25T04:15:03.484Z,56.15
2018-01-25T04:17:29.753Z,56.77
2018-01-25T04:19:56.040Z,57.08
2018-01-25T04:22:22.243Z,57.25
2018-01-25T04:24:48.557Z,56.84
2018-01-25T04:27:14.781Z,56.56
2018-01-25T04:29:40.974Z,57.30
2018-01-25T04:32:07.142Z,57.37
2018-01-25T04:34:33.369Z,57.02
2018-01-25T04:36:59.596Z,57.52
2018-01-25T04:39:25.812Z,56.81
2018-01-25T04:41:51.996Z,57.34
2018-01-25T04:44:18.212Z,57.35
2018-01-25T04:46:44.420Z,57.09
2018-01-25T04:49:10.624Z,56.92
2018-01-25T04:51:36.855Z,56.95
2018-01-25T04:54:03.116Z,56.78
2018-01-25T04:56:29.325Z,56.93
2018-01-25T04:58:55.505Z,57.23
2018-01-25T05:01:21.781Z,57.19
2018-01-25T05:03:48.176Z,56.83
2018-01-25T05:06:14.378Z,56.51
2018-01-25T05:08:40.665Z,56.15
2018-01-25T05:11:06.936Z,56.78
2018-01-25T05:13:33.217Z,57.55
2018-01-25T05:15:59.493Z,57.31
2018-01-25T05:18:25.751Z,57.43
2018-01-25T05:20:52.005Z,57.43
2018-01-25T05:23:18.225Z,58.17
2018-01-25T05:25:44.493Z,57.04
2018-01-25T05:28:10.752Z,57.11
2018-01-25T05:30:37.053Z,56.62
2018-01-25T05:33:03.324Z,56.87
2018-01-25T05:35:29.608Z,57.28
2018-01-25T05:37:55.825Z,56.96
2018-01-25T05:40:22.041Z,57.27
2018-01-25T05:42:48.704Z,57.31
2018-01-25T05:45:14.870Z,57.50
2018-01-25T05:47:41.045Z,56.73
2018-01-25T05:50:07.285Z,57.68
2018-01-25T05:52:33.558Z,57.68
2018-01-25T05:54:59.932Z,58.12
2018-01-25T05:57:26.121Z,58.73
2018-01-25T05:59:52.325Z,57.93
2018-01-25T06:02:18.521Z,57.29
2018-01-25T06:04:44.769Z,56.90
2018-01-25T06:07:10.986Z,57.01
2018-01-25T06:09:37.160Z,57.85
2018-01-25T06:12:03.372Z,57.64
2018-01-25T06:14:29.633Z,57.71
2018-01-25T06:16:55.819Z,57.46
2018-01-25T06:19:22.191Z,56.97
2018-01-25T06:21:48.425Z,56.92
2018-01-25T06:24:14.684Z,56.41
2018-01-25T06:26:40.939Z,57.42
2018-01-25T06:29:07.116Z,56.73
2018-01-25T06:31:33.278Z,56.46
2018-01-25T06:33:59.511Z,56.17
2018-01-25T06:36:25.752Z,55.91
2018-01-25T06:38:51.936Z,55.60
2018-01-25T06:41:18.132Z,55.35
2018-01-25T06:43:44.296Z,55.44
2018-01-25T06:46:10.565Z,55.67
2018-01-25T06:48:36.745Z,55.32
2018-01-25T06:51:02.960Z,55.37
2018-01-25T06:53:29.116Z,54.65
2018-01-25T06:55:55.317Z,54.54
2018-01-25T06:58:21.558Z,54.46
2018-01-25T07:00:47.769Z,54.60
2018-01-25T07:03:14.080Z,55.61
2018-01-25T07:05:40.671Z,55.15
2018-01-25T07:08:07.513Z,54.51
2018-01-25T07:10:33.891Z,54.94
2018-01-25T07:13:00.072Z,55.63
2018-01-25T07:15:26.292Z,55.60
2018-01-25T07:17:52.452Z,55.19
2018-01-25T07:20:18.676Z,54.49
2018-01-25T07:22:44.921Z,54.55
2018-01-25T07:25:11.104Z,54.13
2018-01-25T07:27:37.316Z,54.32
2018-01-25T07:30:03.514Z,54.32
2018-01-25T07:32:30.181Z,54.03
2018-01-25T07:34:56.456Z,54.14
2018-01-25T07:37:22.652Z,54.56
2018-01-25T07:39:48.812Z,54.45
2018-01-25T07:42:15.084Z,54.73
2018-01-25T07:44:41.245Z,54.93
2018-01-25T07:47:07.428Z,54.65
2018-01-25T07:49:33.680Z,54.66
2018-01-25T07:51:59.913Z,54.60
2018-01-25T07:54:26.104Z,54.67
2018-01-25T07:56:52.459Z,54.50
2018-01-25T07:59:18.676Z,54.43
2018-01-25T08:01:44.844Z,54.20
2018-01-25T08:04:11.057Z,54.22
2018-01-25T08:06:37.255Z,54.54
2018-01-25T08:09:03.557Z,54.96
2018-01-25T08:11:29.868Z,54.35
2018-01-25T08:13:56.036Z,54.06
2018-01-25T08:16:28.325Z,53.25
2018-01-25T08:18:54.617Z,54.11
2018-01-25T08:21:20.796Z,53.48
2018-01-25T08:23:46.971Z,52.82
2018-01-25T08:26:13.177Z,53.36
2018-01-25T08:28:39.345Z,53.07
2018-01-25T08:31:05.524Z,52.28
2018-01-25T08:33:31.785Z,52.84
2018-01-25T08:35:58.098Z,52.81
2018-01-25T08:38:24.297Z,52.72
2018-01-25T08:40:50.501Z,54.12
2018-01-25T08:43:16.716Z,52.38
2018-01-25T08:45:42.959Z,52.54
2018-01-25T08:48:09.161Z,52.11
2018-01-25T08:50:35.364Z,51.81
2018-01-25T08:53:01.591Z,58.05
2018-01-25T08:55:27.790Z,51.62
2018-01-25T08:57:54.080Z,51.00
2018-01-25T09:00:20.377Z,50.19
2018-01-25T09:02:46.644Z,50.49
2018-01-25T09:05:12.944Z,50.05
2018-01-25T09:07:39.241Z,50.61
2018-01-25T09:10:05.536Z,50.15
2018-01-25T09:12:31.740Z,53.20
2018-01-25T09:14:58.053Z,51.84
2018-01-25T09:17:24.244Z,51.66
2018-01-25T09:19:50.464Z,62.97
2018-01-25T09:22:16.764Z,59.47
2018-01-25T09:24:42.921Z,49.92
2018-01-25T09:27:09.176Z,50.72
2018-01-25T09:29:35.433Z,48.99
2018-01-25T09:32:01.720Z,61.21
2018-01-25T09:34:27.955Z,54.13
2018-01-25T09:36:54.181Z,56.03
2018-01-25T09:39:20.352Z,63.46
2018-01-25T09:41:46.689Z,60.71
2018-01-25T09:44:12.881Z,60.35
2018-01-25T09:46:39.153Z,65.30
2018-01-25T09:49:05.432Z,66.00
2018-01-25T09:51:31.661Z,66.47
2018-01-25T09:53:57.868Z,65.93
2018-01-25T09:56:24.161Z,65.29
2018-01-25T09:58:50.406Z,65.33
2018-01-25T10:01:16.610Z,59.32
2018-01-25T10:03:42.848Z,61.02
2018-01-25T10:06:09.137Z,55.99
2018-01-25T10:08:35.486Z,60.83
2018-01-25T10:11:01.690Z,63.55
2018-01-25T10:13:27.900Z,50.18
2018-01-25T10:15:54.152Z,62.05
2018-01-25T10:18:20.425Z,63.89
2018-01-25T10:20:46.612Z,60.58
2018-01-25T10:23:12.894Z,49.64
2018-01-25T10:25:39.105Z,50.07
2018-01-25T10:28:05.309Z,61.86
2018-01-25T10:30:31.573Z,47.38
2018-01-25T10:32:57.782Z,56.89
2018-01-25T10:35:23.976Z,46.14
2018-01-25T10:37:50.166Z,58.66
2018-01-25T10:40:16.429Z,46.04
2018-01-25T10:42:42.706Z,55.86
2018-01-25T10:45:09.003Z,50.15
2018-01-25T10:47:35.345Z,51.63
2018-01-25T10:50:01.726Z,46.58
2018-01-25T10:52:28.037Z,60.72
2018-01-25T10:54:54.273Z,61.46
2018-01-25T10:57:20.532Z,63.00
2018-01-25T10:59:46.768Z,63.35
2018-01-25T11:02:13.021Z,61.83
2018-01-25T11:04:39.312Z,55.88
2018-01-25T11:07:05.661Z,41.35
2018-01-25T11:09:31.879Z,48.40
2018-01-25T11:11:58.124Z,42.07
2018-01-25T11:14:24.418Z,45.26
2018-01-25T11:16:50.656Z,51.59
2018-01-25T11:19:16.902Z,58.52
2018-01-25T11:21:43.185Z,59.56
2018-01-25T11:24:09.364Z,61.51
2018-01-25T11:26:35.566Z,61.40
2018-01-25T11:29:01.812Z,54.88
2018-01-25T11:31:28.062Z,60.74
2018-01-25T11:33:54.280Z,58.89
2018-01-25T11:36:20.557Z,61.75
2018-01-25T11:38:46.733Z,61.66
2018-01-25T11:41:12.922Z,62.67
2018-01-25T11:43:39.141Z,62.48
2018-01-25T11:46:05.380Z,61.88
2018-01-25T11:48:31.609Z,40.63
2018-01-25T11:50:57.837Z,60.43
2018-01-25T11:53:24.235Z,62.21
2018-01-25T11:55:50.435Z,61.95
2018-01-25T11:58:16.765Z,55.94
2018-01-25T12:00:42.988Z,48.39
2018-01-25T12:03:09.216Z,41.08
2018-01-25T12:05:35.467Z,44.08
2018-01-25T12:08:01.646Z,41.43
2018-01-25T12:10:27.899Z,39.96
2018-01-25T12:12:54.052Z,58.63
2018-01-25T12:15:20.266Z,44.73
2018-01-25T12:17:46.745Z,53.36
2018-01-25T12:20:13.025Z,52.07
2018-01-25T12:22:39.233Z,57.59
2018-01-25T12:25:05.461Z,47.60
2018-01-25T12:27:31.726Z,60.18
2018-01-25T12:29:57.981Z,39.93
2018-01-25T12:32:24.173Z,56.42
2018-01-25T12:34:50.497Z,58.01
2018-01-25T12:37:16.665Z,61.88
2018-01-25T12:39:42.892Z,62.87
2018-01-25T12:42:09.181Z,58.39
2018-01-25T12:44:35.432Z,62.36
2018-01-25T12:47:01.684Z,46.46
2018-01-25T12:49:27.869Z,42.79
2018-01-25T12:51:54.064Z,59.38
2018-01-25T12:54:20.345Z,58.51
2018-01-25T12:56:46.595Z,61.77
2018-01-25T12:59:12.781Z,52.46
2018-01-25T13:01:38.960Z,52.03
2018-01-25T13:04:05.156Z,51.12
2018-01-25T13:06:31.353Z,46.24
2018-01-25T13:08:57.588Z,41.22
2018-01-25T13:11:23.836Z,41.15
2018-01-25T13:13:50.173Z,40.54
2018-01-25T13:16:16.381Z,39.16
2018-01-25T13:18:42.634Z,58.63
2018-01-25T13:21:08.912Z,56.07
2018-01-25T13:23:35.189Z,48.65
2018-01-25T13:26:01.433Z,45.61
2018-01-25T13:28:27.717Z,55.53
2018-01-25T13:30:54.082Z,39.36
2018-01-25T13:33:26.168Z,41.32
2018-01-25T13:35:52.436Z,57.91
2018-01-25T13:38:18.693Z,47.92
2018-01-25T13:40:44.901Z,43.03
2018-01-25T13:43:11.139Z,51.77
2018-01-25T13:45:37.369Z,52.24
2018-01-25T13:48:03.656Z,59.63
2018-01-25T13:50:29.877Z,55.65
2018-01-25T13:52:56.092Z,45.19
2018-01-25T13:55:22.365Z,44.07
2018-01-25T13:57:48.570Z,48.90
2018-01-25T14:00:14.740Z,47.39
2018-01-25T14:02:41.068Z,40.65
2018-01-25T14:05:07.317Z,50.56
2018-01-25T14:07:33.560Z,50.49
2018-01-25T14:09:59.828Z,57.93
2018-01-25T14:12:26.064Z,58.52
2018-01-25T14:14:52.405Z,55.78
2018-01-25T14:17:18.688Z,60.05
2018-01-25T14:19:44.901Z,63.56
2018-01-25T14:22:11.176Z,54.90
2018-01-25T14:24:37.405Z,45.92
2018-01-25T14:27:03.585Z,61.75
2018-01-25T14:29:29.860Z,60.34
2018-01-25T14:31:56.109Z,63.50
2018-01-25T14:34:22.342Z,46.60
2018-01-25T14:36:48.644Z,61.52
2018-01-25T14:39:14.867Z,49.58
2018-01-25T14:41:41.121Z,59.20
2018-01-25T14:44:07.297Z,57.64
2018-01-25T14:46:33.517Z,55.09
2018-01-25T14:48:59.784Z,48.24
2018-01-25T14:51:26.047Z,59.05
2018-01-25T14:53:52.297Z,43.46
2018-01-25T14:56:18.609Z,58.06
2018-01-25T14:58:44.835Z,57.88
2018-01-25T15:01:11.085Z,49.93
2018-01-25T15:03:37.360Z,44.36
2018-01-25T15:06:03.583Z,41.14
2018-01-25T15:08:29.813Z,40.47
2018-01-25T15:10:56.018Z,42.05
2018-01-25T15:13:22.257Z,45.24
2018-01-25T15:15:48.472Z,44.02
2018-01-25T15:18:14.705Z,42.01
2018-01-25T15:20:40.942Z,47.15
2018-01-25T15:23:07.141Z,41.80
2018-01-25T15:25:39.365Z,47.87
2018-01-25T15:28:05.565Z,44.25
2018-01-25T15:30:31.837Z,46.30
2018-01-25T15:32:58.216Z,50.35
2018-01-25T15:35:24.480Z,49.44
2018-01-25T15:37:50.889Z,46.75
2018-01-25T15:40:17.152Z,43.87
2018-01-25T15:42:43.358Z,44.26
2018-01-25T15:45:09.601Z,48.86
2018-01-25T15:47:35.840Z,43.51
2018-01-25T15:50:02.249Z,43.65
2018-01-25T15:52:28.477Z,49.95
2018-01-25T15:54:54.706Z,43.90
2018-01-25T15:57:20.904Z,43.75
2018-01-25T15:59:47.152Z,43.60
2018-01-25T16:02:13.438Z,46.55
2018-01-25T16:04:39.608Z,45.03
2018-01-25T16:07:05.824Z,44.53
2018-01-25T16:09:32.053Z,45.17
2018-01-25T16:11:58.293Z,48.04
2018-01-25T16:14:24.484Z,45.18
2018-01-25T16:16:50.722Z,45.27
2018-01-25T16:19:16.957Z,47.80
2018-01-25T16:21:43.172Z,47.79
2018-01-25T16:24:09.429Z,54.84
2018-01-25T16:26:35.640Z,46.68
2018-01-25T16:29:01.881Z,46.09
2018-01-25T16:31:28.108Z,46.20
2018-01-25T16:33:54.361Z,46.12
2018-01-25T16:36:20.593Z,45.68
2018-01-25T16:38:47.039Z,46.07
2018-01-25T16:41:13.124Z,46.75
2018-01-25T16:43:39.306Z,46.48
2018-01-25T16:46:05.616Z,46.63
2018-01-25T16:48:31.893Z,47.27
2018-01-25T16:50:58.074Z,47.62
2018-01-25T16:53:24.325Z,47.46
2018-01-25T16:55:50.640Z,47.96
2018-01-25T16:58:16.886Z,47.69
2018-01-25T17:00:43.158Z,47.75
2018-01-25T17:03:09.369Z,48.05
2018-01-25T17:05:35.624Z,48.71
2018-01-25T17:08:01.876Z,48.79
2018-01-25T17:10:28.129Z,48.79
2018-01-25T17:12:54.384Z,48.84
2018-01-25T17:15:20.589Z,49.08
2018-01-25T17:17:46.840Z,49.45
2018-01-25T17:20:13.085Z,49.32
2018-01-25T17:22:39.362Z,49.55
2018-01-25T17:25:05.709Z,49.92
2018-01-25T17:27:31.953Z,50.30
2018-01-25T17:29:58.188Z,50.81
2018-01-25T17:32:24.456Z,50.67
2018-01-25T17:34:50.712Z,51.38
2018-01-25T17:37:16.954Z,52.45
2018-01-25T17:39:43.188Z,52.13
2018-01-25T17:42:09.440Z,52.30
2018-01-25T17:44:35.704Z,52.12
2018-01-25T17:47:01.989Z,52.27
2018-01-25T17:49:28.292Z,52.77
2018-01-25T17:51:54.545Z,52.39
2018-01-25T17:54:20.737Z,52.55
2018-01-25T17:56:46.981Z,52.40
2018-01-25T17:59:13.259Z,53.36
2018-01-25T18:01:39.480Z,52.29
2018-01-25T18:04:05.733Z,52.07
2018-01-25T18:06:31.988Z,52.18
2018-01-25T18:08:58.193Z,52.29
2018-01-25T18:11:24.456Z,52.60
2018-01-25T18:13:50.689Z,52.54
2018-01-25T18:16:16.892Z,52.45
2018-01-25T18:18:43.137Z,53.08
2018-01-25T18:21:09.412Z,53.20
2018-01-25T18:23:35.697Z,53.77
2018-01-25T18:26:01.992Z,53.65
2018-01-25T18:28:28.196Z,53.37
2018-01-25T18:30:54.428Z,53.39
2018-01-25T18:33:20.792Z,53.62
2018-01-25T18:35:46.969Z,53.74
2018-01-25T18:38:13.197Z,54.26
2018-01-25T18:40:39.504Z,53.63
2018-01-25T18:43:05.704Z,53.80
2018-01-25T18:45:32.148Z,53.83
2018-01-25T18:47:58.368Z,54.06
2018-01-25T18:50:24.600Z,53.74
2018-01-25T18:52:50.873Z,55.51
2018-01-25T18:55:17.144Z,53.83
2018-01-25T18:57:43.360Z,52.98
2018-01-25T19:00:09.685Z,53.03
2018-01-25T19:02:35.932Z,53.61
2018-01-25T19:05:02.194Z,53.35
2018-01-25T19:07:28.387Z,53.50
2018-01-25T19:09:54.662Z,53.73
2018-01-25T19:12:20.920Z,53.71
2018-01-25T19:14:47.184Z,54.10
2018-01-25T19:17:13.433Z,53.88
2018-01-25T19:19:39.624Z,53.94
2018-01-25T19:22:05.990Z,53.94
2018-01-25T19:24:32.308Z,54.01
2018-01-25T19:26:58.560Z,54.19
2018-01-25T19:29:24.852Z,54.14
2018-01-25T19:31:51.695Z,54.47
2018-01-25T19:34:17.922Z,54.65
2018-01-25T19:36:44.136Z,55.38
2018-01-25T19:39:10.357Z,54.47
2018-01-25T19:41:36.584Z,54.39
2018-01-25T19:44:02.899Z,54.56
2018-01-25T19:46:29.145Z,54.37
2018-01-25T19:48:55.332Z,55.22
2018-01-25T19:51:21.557Z,54.84
2018-01-25T19:53:47.809Z,54.94
2018-01-25T19:56:14.010Z,54.49
2018-01-25T19:58:40.297Z,54.80
2018-01-25T20:01:06.565Z,54.84
2018-01-25T20:03:32.805Z,55.53
2018-01-25T20:05:59.037Z,56.08
2018-01-25T20:08:25.300Z,55.97
2018-01-25T20:10:51.766Z,55.21
2018-01-25T20:13:17.994Z,56.12
2018-01-25T20:15:45.253Z,55.93
2018-01-25T20:18:11.468Z,55.96
2018-01-25T20:20:38.574Z,55.88
2018-01-25T20:23:04.869Z,55.63
2018-01-25T20:25:31.033Z,56.21
2018-01-25T20:27:57.237Z,56.22
2018-01-25T20:30:23.532Z,56.32
2018-01-25T20:32:49.781Z,56.01
2018-01-25T20:35:15.997Z,56.91
2018-01-25T20:37:42.261Z,56.11
2018-01-25T20:40:08.486Z,56.88
2018-01-25T20:42:34.709Z,56.50
2018-01-25T20:45:00.967Z,56.98
2018-01-25T20:47:27.217Z,56.78
2018-01-25T20:49:53.457Z,56.87
2018-01-25T20:52:19.749Z,55.80
2018-01-25T20:54:46.078Z,55.86
2018-01-25T20:57:12.269Z,55.55
2018-01-25T20:59:38.490Z,55.81
2018-01-25T21:02:04.717Z,56.14
2018-01-25T21:04:30.930Z,55.86
2018-01-25T21:06:57.135Z,55.73
2018-01-25T21:09:23.473Z,55.89
2018-01-25T21:11:49.663Z,56.35
2018-01-25T21:14:15.881Z,56.75
2018-01-25T21:16:42.086Z,56.58
2018-01-25T21:19:08.312Z,57.13
2018-01-25T21:21:34.852Z,57.06
2018-01-25T21:24:01.082Z,56.63
2018-01-25T21:26:27.317Z,56.92
2018-01-25T21:28:53.564Z,57.49
2018-01-25T21:31:19.845Z,57.55
2018-01-25T21:33:46.134Z,57.87
2018-01-25T21:36:12.357Z,58.72
2018-01-25T21:38:38.557Z,59.17
2018-01-25T21:41:04.765Z,58.26
2018-01-25T21:43:30.998Z,58.28
2018-01-25T21:45:57.249Z,58.00
2018-01-25T21:48:23.508Z,58.10
2018-01-25T21:50:49.888Z,58.10
2018-01-25T21:53:16.069Z,58.51
2018-01-25T21:55:42.264Z,58.19
2018-01-25T21:58:08.528Z,61.87
2018-01-25T22:00:34.892Z,58.80
2018-01-25T22:03:01.100Z,58.26
2018-01-25T22:05:27.360Z,58.38
2018-01-25T22:07:53.568Z,58.29
2018-01-25T22:10:19.750Z,58.61
2018-01-25T22:12:46.212Z,58.56
2018-01-25T22:15:12.421Z,58.71
2018-01-25T22:17:38.645Z,58.38
2018-01-25T22:20:04.941Z,58.32
2018-01-25T22:22:31.121Z,58.55
2018-01-25T22:24:57.370Z,58.40
2018-01-25T22:27:23.621Z,58.51
2018-01-25T22:29:49.808Z,58.00
2018-01-25T22:32:16.089Z,58.21
2018-01-25T22:34:42.380Z,58.30
2018-01-25T22:37:08.579Z,58.12
2018-01-25T22:39:34.892Z,57.70
2018-01-25T22:42:01.152Z,57.84
2018-01-25T22:44:27.364Z,57.59
2018-01-25T22:46:53.588Z,57.88
2018-01-25T22:49:19.780Z,60.06
2018-01-25T22:51:46.057Z,58.91
2018-01-25T22:54:12.308Z,58.99
2018-01-25T22:56:38.501Z,58.77
2018-01-25T22:59:04.747Z,58.67
2018-01-25T23:01:30.980Z,59.18
2018-01-25T23:03:57.213Z,58.45
2018-01-25T23:06:23.421Z,58.60
2018-01-25T23:08:49.661Z,58.46
2018-01-25T23:11:16.016Z,58.52
2018-01-25T23:13:42.204Z,58.28
2018-01-25T23:16:08.449Z,58.13
2018-01-25T23:18:34.791Z,58.44
2018-01-25T23:21:01.262Z,58.67
2018-01-25T23:23:27.644Z,58.50
2018-01-25T23:25:54.149Z,59.09
2018-01-25T23:28:20.561Z,58.51
2018-01-25T23:30:47.014Z,58.59
2018-01-25T23:33:13.449Z,58.48
2018-01-25T23:35:39.861Z,59.46
2018-01-25T23:38:06.305Z,59.17
2018-01-25T23:40:32.861Z,58.80
2018-01-25T23:42:59.237Z,58.56
2018-01-25T23:45:25.725Z,58.74
2018-01-25T23:47:52.190Z,60.31
2018-01-25T23:50:18.563Z,60.85
2018-01-25T23:52:45.046Z,61.21
2018-01-25T23:55:11.477Z,60.64
2018-01-25T23:57:37.913Z,60.21
